sensor_id;sensor_type;location;lat;lon;timestamp;P1;durP1;ratioP1;P2;durP2;ratioP2
1320;SDS011;653;51.480;11.992;2023-03-26T00:01:14;1.77;;;1.03;;
1320;SDS011;653;51.480;11.992;2023-03-26T00:03:50;1.57;;;0.57;;
1320;SDS011;653;51.480;11.992;2023-03-26T00:06:21;1.40;;;0.70;;
1320;SDS011;653;51.480;11.992;2023-03-26T00:08:49;1.20;;;0.60;;
1320;SDS011;653;51.480;11.992;2023-03-26T00:11:17;1.33;;;0.60;;
1320;SDS011;653;51.480;11.992;2023-03-26T00:13:45;1.07;;;0.50;;
1320;SDS011;653;51.480;11.992;2023-03-26T00:16:15;1.47;;;0.60;;
1320;SDS011;653;51.480;11.992;2023-03-26T00:18:43;2.13;;;0.50;;
1320;SDS011;653;51.480;11.992;2023-03-26T00:21:12;1.10;;;0.40;;
1320;SDS011;653;51.480;11.992;2023-03-26T00:23:41;2.67;;;0.70;;
1320;SDS011;653;51.480;11.992;2023-03-26T00:26:09;3.47;;;1.00;;
1320;SDS011;653;51.480;11.992;2023-03-26T00:28:37;1.40;;;0.60;;
1320;SDS011;653;51.480;11.992;2023-03-26T00:31:05;1.20;;;0.43;;
1320;SDS011;653;51.480;11.992;2023-03-26T00:33:37;1.10;;;0.60;;
1320;SDS011;653;51.480;11.992;2023-03-26T00:36:09;1.10;;;0.60;;
1320;SDS011;653;51.480;11.992;2023-03-26T00:38:40;1.33;;;0.70;;
1320;SDS011;653;51.480;11.992;2023-03-26T00:41:07;1.30;;;0.60;;
1320;SDS011;653;51.480;11.992;2023-03-26T00:43:44;1.23;;;0.60;;
1320;SDS011;653;51.480;11.992;2023-03-26T00:46:12;2.30;;;0.80;;
1320;SDS011;653;51.480;11.992;2023-03-26T00:48:39;1.63;;;0.70;;
1320;SDS011;653;51.480;11.992;2023-03-26T00:51:09;1.30;;;0.80;;
1320;SDS011;653;51.480;11.992;2023-03-26T00:53:36;1.47;;;0.83;;
1320;SDS011;653;51.480;11.992;2023-03-26T00:56:04;1.60;;;0.83;;
1320;SDS011;653;51.480;11.992;2023-03-26T00:58:32;1.20;;;0.60;;
1320;SDS011;653;51.480;11.992;2023-03-26T01:01:01;2.07;;;0.80;;
1320;SDS011;653;51.480;11.992;2023-03-26T01:03:31;0.90;;;0.40;;
1320;SDS011;653;51.480;11.992;2023-03-26T01:06:10;1.63;;;0.60;;
1320;SDS011;653;51.480;11.992;2023-03-26T01:08:53;2.00;;;0.73;;
1320;SDS011;653;51.480;11.992;2023-03-26T01:11:26;1.37;;;0.90;;
1320;SDS011;653;51.480;11.992;2023-03-26T01:13:59;1.00;;;0.50;;
1320;SDS011;653;51.480;11.992;2023-03-26T01:16:50;1.87;;;0.60;;
1320;SDS011;653;51.480;11.992;2023-03-26T01:22:21;1.60;;;0.53;;
1320;SDS011;653;51.480;11.992;2023-03-26T01:24:49;1.37;;;0.60;;
1320;SDS011;653;51.480;11.992;2023-03-26T01:30:15;1.53;;;0.60;;
1320;SDS011;653;51.480;11.992;2023-03-26T01:33:03;1.73;;;0.60;;
1320;SDS011;653;51.480;11.992;2023-03-26T01:35:57;2.07;;;0.80;;
1320;SDS011;653;51.480;11.992;2023-03-26T01:46:42;1.07;;;0.60;;
1320;SDS011;653;51.480;11.992;2023-03-26T01:49:10;1.30;;;0.90;;
1320;SDS011;653;51.480;11.992;2023-03-26T01:51:39;2.90;;;1.00;;
1320;SDS011;653;51.480;11.992;2023-03-26T01:54:13;1.90;;;1.13;;
1320;SDS011;653;51.480;11.992;2023-03-26T02:02:16;2.27;;;0.93;;
1320;SDS011;653;51.480;11.992;2023-03-26T02:07:43;1.30;;;0.77;;
1320;SDS011;653;51.480;11.992;2023-03-26T02:10:19;6.20;;;1.27;;
1320;SDS011;653;51.480;11.992;2023-03-26T02:12:49;2.33;;;1.00;;
1320;SDS011;653;51.480;11.992;2023-03-26T02:15:18;1.70;;;1.20;;
1320;SDS011;653;51.480;11.992;2023-03-26T02:17:44;2.80;;;1.03;;
1320;SDS011;653;51.480;11.992;2023-03-26T02:20:11;9.57;;;1.47;;
1320;SDS011;653;51.480;11.992;2023-03-26T02:22:39;3.70;;;1.20;;
1320;SDS011;653;51.480;11.992;2023-03-26T02:25:07;2.23;;;1.17;;
1320;SDS011;653;51.480;11.992;2023-03-26T02:27:38;2.33;;;1.20;;
1320;SDS011;653;51.480;11.992;2023-03-26T02:30:05;3.10;;;1.20;;
1320;SDS011;653;51.480;11.992;2023-03-26T02:32:34;2.70;;;1.70;;
1320;SDS011;653;51.480;11.992;2023-03-26T02:35:00;3.00;;;1.00;;
1320;SDS011;653;51.480;11.992;2023-03-26T02:37:28;2.30;;;0.97;;
1320;SDS011;653;51.480;11.992;2023-03-26T02:39:56;1.50;;;1.10;;
1320;SDS011;653;51.480;11.992;2023-03-26T02:42:22;1.53;;;1.13;;
1320;SDS011;653;51.480;11.992;2023-03-26T02:44:49;1.77;;;1.20;;
1320;SDS011;653;51.480;11.992;2023-03-26T02:47:16;2.40;;;1.43;;
1320;SDS011;653;51.480;11.992;2023-03-26T02:49:42;4.23;;;1.47;;
1320;SDS011;653;51.480;11.992;2023-03-26T02:52:09;2.50;;;1.40;;
1320;SDS011;653;51.480;11.992;2023-03-26T02:54:35;2.87;;;1.60;;
1320;SDS011;653;51.480;11.992;2023-03-26T02:57:02;5.00;;;2.00;;
1320;SDS011;653;51.480;11.992;2023-03-26T02:59:29;4.00;;;1.87;;
1320;SDS011;653;51.480;11.992;2023-03-26T03:01:55;3.27;;;1.63;;
1320;SDS011;653;51.480;11.992;2023-03-26T03:04:22;1.47;;;1.23;;
1320;SDS011;653;51.480;11.992;2023-03-26T03:06:47;2.63;;;1.80;;
1320;SDS011;653;51.480;11.992;2023-03-26T03:09:18;3.30;;;1.60;;
1320;SDS011;653;51.480;11.992;2023-03-26T03:11:45;3.90;;;2.10;;
1320;SDS011;653;51.480;11.992;2023-03-26T03:14:14;5.03;;;2.03;;
1320;SDS011;653;51.480;11.992;2023-03-26T03:16:41;5.10;;;1.70;;
1320;SDS011;653;51.480;11.992;2023-03-26T03:19:10;2.57;;;1.10;;
1320;SDS011;653;51.480;11.992;2023-03-26T03:21:36;2.17;;;1.60;;
1320;SDS011;653;51.480;11.992;2023-03-26T03:24:02;4.70;;;1.70;;
1320;SDS011;653;51.480;11.992;2023-03-26T03:26:29;4.47;;;1.93;;
1320;SDS011;653;51.480;11.992;2023-03-26T03:28:56;5.53;;;1.80;;
1320;SDS011;653;51.480;11.992;2023-03-26T03:31:24;4.90;;;2.00;;
1320;SDS011;653;51.480;11.992;2023-03-26T03:33:52;4.33;;;2.10;;
1320;SDS011;653;51.480;11.992;2023-03-26T03:36:18;5.63;;;2.30;;
1320;SDS011;653;51.480;11.992;2023-03-26T03:38:49;5.67;;;2.00;;
1320;SDS011;653;51.480;11.992;2023-03-26T03:41:16;5.57;;;1.90;;
1320;SDS011;653;51.480;11.992;2023-03-26T03:43:43;4.07;;;1.93;;
1320;SDS011;653;51.480;11.992;2023-03-26T03:46:11;3.80;;;1.90;;
1320;SDS011;653;51.480;11.992;2023-03-26T03:48:37;4.57;;;2.20;;
1320;SDS011;653;51.480;11.992;2023-03-26T03:51:05;4.53;;;2.47;;
1320;SDS011;653;51.480;11.992;2023-03-26T03:53:32;3.37;;;2.20;;
1320;SDS011;653;51.480;11.992;2023-03-26T03:56:01;3.37;;;2.30;;
1320;SDS011;653;51.480;11.992;2023-03-26T03:58:28;2.50;;;2.20;;
1320;SDS011;653;51.480;11.992;2023-03-26T04:00:56;3.93;;;2.07;;
1320;SDS011;653;51.480;11.992;2023-03-26T04:03:27;4.43;;;2.40;;
1320;SDS011;653;51.480;11.992;2023-03-26T04:05:54;3.10;;;1.93;;
1320;SDS011;653;51.480;11.992;2023-03-26T04:08:20;3.00;;;1.77;;
1320;SDS011;653;51.480;11.992;2023-03-26T04:10:46;4.03;;;1.70;;
1320;SDS011;653;51.480;11.992;2023-03-26T04:13:12;5.60;;;2.83;;
1320;SDS011;653;51.480;11.992;2023-03-26T04:15:41;5.13;;;2.20;;
1320;SDS011;653;51.480;11.992;2023-03-26T04:18:08;3.50;;;3.13;;
1320;SDS011;653;51.480;11.992;2023-03-26T04:20:40;4.60;;;2.43;;
1320;SDS011;653;51.480;11.992;2023-03-26T04:23:12;3.80;;;1.90;;
1320;SDS011;653;51.480;11.992;2023-03-26T04:25:47;2.90;;;2.27;;
1320;SDS011;653;51.480;11.992;2023-03-26T04:28:24;4.50;;;2.67;;
1320;SDS011;653;51.480;11.992;2023-03-26T04:30:54;5.30;;;1.97;;
1320;SDS011;653;51.480;11.992;2023-03-26T04:33:23;3.50;;;2.20;;
1320;SDS011;653;51.480;11.992;2023-03-26T04:35:50;6.23;;;2.40;;
1320;SDS011;653;51.480;11.992;2023-03-26T04:38:16;3.87;;;1.87;;
1320;SDS011;653;51.480;11.992;2023-03-26T04:40:42;3.70;;;2.20;;
1320;SDS011;653;51.480;11.992;2023-03-26T04:43:13;4.37;;;2.13;;
1320;SDS011;653;51.480;11.992;2023-03-26T04:45:43;3.47;;;1.90;;
1320;SDS011;653;51.480;11.992;2023-03-26T04:48:13;2.97;;;1.97;;
1320;SDS011;653;51.480;11.992;2023-03-26T04:50:41;4.57;;;1.43;;
1320;SDS011;653;51.480;11.992;2023-03-26T04:53:10;2.50;;;1.90;;
1320;SDS011;653;51.480;11.992;2023-03-26T04:55:44;6.60;;;2.50;;
1320;SDS011;653;51.480;11.992;2023-03-26T04:58:13;3.43;;;1.97;;
1320;SDS011;653;51.480;11.992;2023-03-26T05:00:41;3.23;;;1.60;;
1320;SDS011;653;51.480;11.992;2023-03-26T05:03:09;3.70;;;1.80;;
1320;SDS011;653;51.480;11.992;2023-03-26T05:05:37;2.33;;;1.80;;
1320;SDS011;653;51.480;11.992;2023-03-26T05:08:04;4.80;;;1.83;;
1320;SDS011;653;51.480;11.992;2023-03-26T05:10:32;2.53;;;1.50;;
1320;SDS011;653;51.480;11.992;2023-03-26T05:12:58;2.37;;;1.47;;
1320;SDS011;653;51.480;11.992;2023-03-26T05:15:26;2.33;;;1.43;;
1320;SDS011;653;51.480;11.992;2023-03-26T05:17:52;2.60;;;1.90;;
1320;SDS011;653;51.480;11.992;2023-03-26T05:20:25;3.57;;;1.73;;
1320;SDS011;653;51.480;11.992;2023-03-26T05:22:52;3.30;;;1.57;;
1320;SDS011;653;51.480;11.992;2023-03-26T05:25:18;3.80;;;2.27;;
1320;SDS011;653;51.480;11.992;2023-03-26T05:27:47;6.43;;;1.83;;
1320;SDS011;653;51.480;11.992;2023-03-26T05:30:14;6.93;;;1.83;;
1320;SDS011;653;51.480;11.992;2023-03-26T05:32:42;2.53;;;1.50;;
1320;SDS011;653;51.480;11.992;2023-03-26T05:35:09;3.30;;;1.30;;
1320;SDS011;653;51.480;11.992;2023-03-26T05:37:36;5.40;;;2.47;;
1320;SDS011;653;51.480;11.992;2023-03-26T05:40:05;2.93;;;1.90;;
1320;SDS011;653;51.480;11.992;2023-03-26T05:42:38;3.63;;;1.77;;
1320;SDS011;653;51.480;11.992;2023-03-26T05:45:06;2.80;;;1.80;;
1320;SDS011;653;51.480;11.992;2023-03-26T05:47:35;10.53;;;2.77;;
1320;SDS011;653;51.480;11.992;2023-03-26T05:50:02;2.50;;;1.77;;
1320;SDS011;653;51.480;11.992;2023-03-26T05:52:29;2.30;;;1.70;;
1320;SDS011;653;51.480;11.992;2023-03-26T05:54:57;1.83;;;1.20;;
1320;SDS011;653;51.480;11.992;2023-03-26T05:57:23;3.90;;;1.50;;
1320;SDS011;653;51.480;11.992;2023-03-26T05:59:53;3.23;;;1.50;;
1320;SDS011;653;51.480;11.992;2023-03-26T06:02:20;2.43;;;1.60;;
1320;SDS011;653;51.480;11.992;2023-03-26T06:04:48;6.13;;;1.60;;
1320;SDS011;653;51.480;11.992;2023-03-26T06:07:16;3.33;;;2.07;;
1320;SDS011;653;51.480;11.992;2023-03-26T06:09:43;2.97;;;1.90;;
1320;SDS011;653;51.480;11.992;2023-03-26T06:12:10;1.93;;;1.43;;
1320;SDS011;653;51.480;11.992;2023-03-26T06:14:36;3.87;;;1.60;;
1320;SDS011;653;51.480;11.992;2023-03-26T06:17:02;2.83;;;1.70;;
1320;SDS011;653;51.480;11.992;2023-03-26T06:19:29;2.93;;;2.10;;
1320;SDS011;653;51.480;11.992;2023-03-26T06:21:55;3.10;;;1.87;;
1320;SDS011;653;51.480;11.992;2023-03-26T06:24:22;3.17;;;2.00;;
1320;SDS011;653;51.480;11.992;2023-03-26T06:26:49;2.30;;;2.07;;
1320;SDS011;653;51.480;11.992;2023-03-26T06:29:17;3.43;;;2.20;;
1320;SDS011;653;51.480;11.992;2023-03-26T06:31:43;3.90;;;2.23;;
1320;SDS011;653;51.480;11.992;2023-03-26T06:34:08;2.83;;;2.10;;
1320;SDS011;653;51.480;11.992;2023-03-26T06:36:35;3.70;;;2.00;;
1320;SDS011;653;51.480;11.992;2023-03-26T06:39:02;4.60;;;2.00;;
1320;SDS011;653;51.480;11.992;2023-03-26T06:41:29;3.87;;;1.87;;
1320;SDS011;653;51.480;11.992;2023-03-26T06:43:55;5.20;;;1.80;;
1320;SDS011;653;51.480;11.992;2023-03-26T06:46:21;3.10;;;1.80;;
1320;SDS011;653;51.480;11.992;2023-03-26T06:48:47;2.70;;;1.67;;
1320;SDS011;653;51.480;11.992;2023-03-26T06:51:13;4.30;;;2.17;;
1320;SDS011;653;51.480;11.992;2023-03-26T06:53:44;3.93;;;1.90;;
1320;SDS011;653;51.480;11.992;2023-03-26T06:56:11;3.80;;;2.70;;
1320;SDS011;653;51.480;11.992;2023-03-26T06:58:37;4.43;;;2.23;;
1320;SDS011;653;51.480;11.992;2023-03-26T07:01:04;2.90;;;1.83;;
1320;SDS011;653;51.480;11.992;2023-03-26T07:03:30;2.70;;;1.90;;
1320;SDS011;653;51.480;11.992;2023-03-26T07:05:59;2.27;;;1.40;;
1320;SDS011;653;51.480;11.992;2023-03-26T07:08:25;3.90;;;2.13;;
1320;SDS011;653;51.480;11.992;2023-03-26T07:10:52;4.57;;;1.83;;
1320;SDS011;653;51.480;11.992;2023-03-26T07:13:19;5.87;;;2.50;;
1320;SDS011;653;51.480;11.992;2023-03-26T07:15:46;6.53;;;2.07;;
1320;SDS011;653;51.480;11.992;2023-03-26T07:18:12;3.30;;;1.57;;
1320;SDS011;653;51.480;11.992;2023-03-26T07:20:38;4.07;;;1.53;;
1320;SDS011;653;51.480;11.992;2023-03-26T07:23:04;6.10;;;2.07;;
1320;SDS011;653;51.480;11.992;2023-03-26T07:25:33;7.93;;;1.70;;
1320;SDS011;653;51.480;11.992;2023-03-26T07:28:10;2.63;;;1.50;;
1320;SDS011;653;51.480;11.992;2023-03-26T07:38:45;5.80;;;1.80;;
1320;SDS011;653;51.480;11.992;2023-03-26T07:44:43;7.37;;;3.40;;
1320;SDS011;653;51.480;11.992;2023-03-26T07:47:40;4.23;;;2.00;;
1320;SDS011;653;51.480;11.992;2023-03-26T07:50:25;4.00;;;2.20;;
1320;SDS011;653;51.480;11.992;2023-03-26T07:52:50;4.60;;;2.53;;
1320;SDS011;653;51.480;11.992;2023-03-26T07:55:18;3.30;;;1.80;;
1320;SDS011;653;51.480;11.992;2023-03-26T08:00:47;4.20;;;2.50;;
1320;SDS011;653;51.480;11.992;2023-03-26T08:03:24;5.60;;;2.13;;
1320;SDS011;653;51.480;11.992;2023-03-26T08:08:59;10.10;;;2.60;;
1320;SDS011;653;51.480;11.992;2023-03-26T08:11:51;6.17;;;3.03;;
1320;SDS011;653;51.480;11.992;2023-03-26T08:17:38;6.67;;;3.10;;
1320;SDS011;653;51.480;11.992;2023-03-26T08:20:24;5.83;;;2.00;;
1320;SDS011;653;51.480;11.992;2023-03-26T08:22:54;7.30;;;3.17;;
1320;SDS011;653;51.480;11.992;2023-03-26T08:25:33;6.80;;;2.90;;
1320;SDS011;653;51.480;11.992;2023-03-26T08:30:46;5.87;;;2.90;;
1320;SDS011;653;51.480;11.992;2023-03-26T08:33:19;6.60;;;2.50;;
1320;SDS011;653;51.480;11.992;2023-03-26T08:35:46;6.43;;;2.70;;
1320;SDS011;653;51.480;11.992;2023-03-26T08:38:13;14.40;;;3.27;;
1320;SDS011;653;51.480;11.992;2023-03-26T08:49:07;8.73;;;3.77;;
1320;SDS011;653;51.480;11.992;2023-03-26T08:52:18;7.27;;;3.07;;
1320;SDS011;653;51.480;11.992;2023-03-26T09:18:50;7.80;;;3.97;;
1320;SDS011;653;51.480;11.992;2023-03-26T09:50:34;8.77;;;4.47;;
1320;SDS011;653;51.480;11.992;2023-03-26T10:02:01;7.20;;;4.70;;
1320;SDS011;653;51.480;11.992;2023-03-26T10:10:33;20.67;;;6.20;;
1320;SDS011;653;51.480;11.992;2023-03-26T10:25:14;11.53;;;5.20;;
1320;SDS011;653;51.480;11.992;2023-03-26T10:34:06;7.30;;;4.60;;
1320;SDS011;653;51.480;11.992;2023-03-26T10:57:02;8.60;;;4.90;;
1320;SDS011;653;51.480;11.992;2023-03-26T10:59:32;6.33;;;3.97;;
1320;SDS011;653;51.480;11.992;2023-03-26T11:07:36;7.90;;;4.17;;
1320;SDS011;653;51.480;11.992;2023-03-26T11:15:46;12.37;;;4.60;;
1320;SDS011;653;51.480;11.992;2023-03-26T11:18:36;11.43;;;4.23;;
1320;SDS011;653;51.480;11.992;2023-03-26T11:26:57;8.33;;;4.63;;
1320;SDS011;653;51.480;11.992;2023-03-26T11:32:14;9.83;;;4.40;;
1320;SDS011;653;51.480;11.992;2023-03-26T11:34:48;10.03;;;5.00;;
1320;SDS011;653;51.480;11.992;2023-03-26T11:37:26;8.40;;;3.53;;
1320;SDS011;653;51.480;11.992;2023-03-26T11:39:57;9.60;;;4.20;;
1320;SDS011;653;51.480;11.992;2023-03-26T11:42:27;6.00;;;3.80;;
1320;SDS011;653;51.480;11.992;2023-03-26T11:45:04;6.23;;;3.80;;
1320;SDS011;653;51.480;11.992;2023-03-26T11:47:35;6.60;;;3.60;;
1320;SDS011;653;51.480;11.992;2023-03-26T11:50:05;11.57;;;5.00;;
1320;SDS011;653;51.480;11.992;2023-03-26T11:52:34;9.03;;;4.00;;
1320;SDS011;653;51.480;11.992;2023-03-26T11:55:02;13.50;;;4.80;;
1320;SDS011;653;51.480;11.992;2023-03-26T11:57:30;9.23;;;3.90;;
1320;SDS011;653;51.480;11.992;2023-03-26T11:59:59;9.37;;;5.00;;
1320;SDS011;653;51.480;11.992;2023-03-26T12:02:40;6.17;;;3.30;;
1320;SDS011;653;51.480;11.992;2023-03-26T12:07:51;9.27;;;4.20;;
1320;SDS011;653;51.480;11.992;2023-03-26T12:10:26;7.67;;;4.70;;
1320;SDS011;653;51.480;11.992;2023-03-26T12:12:55;7.13;;;4.10;;
1320;SDS011;653;51.480;11.992;2023-03-26T12:15:24;5.90;;;3.30;;
1320;SDS011;653;51.480;11.992;2023-03-26T12:17:54;5.30;;;3.47;;
1320;SDS011;653;51.480;11.992;2023-03-26T12:26:13;7.60;;;3.67;;
1320;SDS011;653;51.480;11.992;2023-03-26T12:28:46;5.73;;;3.20;;
1320;SDS011;653;51.480;11.992;2023-03-26T12:31:13;5.47;;;3.53;;
1320;SDS011;653;51.480;11.992;2023-03-26T12:33:44;4.83;;;3.80;;
1320;SDS011;653;51.480;11.992;2023-03-26T12:36:32;5.07;;;3.43;;
1320;SDS011;653;51.480;11.992;2023-03-26T12:38:58;6.70;;;4.23;;
1320;SDS011;653;51.480;11.992;2023-03-26T12:41:36;7.87;;;3.67;;
1320;SDS011;653;51.480;11.992;2023-03-26T12:44:20;6.20;;;3.77;;
1320;SDS011;653;51.480;11.992;2023-03-26T12:47:12;14.70;;;5.63;;
1320;SDS011;653;51.480;11.992;2023-03-26T12:49:50;9.60;;;3.80;;
1320;SDS011;653;51.480;11.992;2023-03-26T12:52:26;10.67;;;4.27;;
1320;SDS011;653;51.480;11.992;2023-03-26T13:06:48;7.40;;;3.63;;
1320;SDS011;653;51.480;11.992;2023-03-26T13:15:38;8.50;;;4.13;;
1320;SDS011;653;51.480;11.992;2023-03-26T13:32:28;7.67;;;3.13;;
1320;SDS011;653;51.480;11.992;2023-03-26T13:38:09;5.37;;;1.93;;
1320;SDS011;653;51.480;11.992;2023-03-26T13:46:29;5.07;;;2.23;;
1320;SDS011;653;51.480;11.992;2023-03-26T13:51:54;4.37;;;2.27;;
1320;SDS011;653;51.480;11.992;2023-03-26T13:54:45;2.00;;;1.40;;
1320;SDS011;653;51.480;11.992;2023-03-26T13:57:17;3.17;;;1.57;;
1320;SDS011;653;51.480;11.992;2023-03-26T14:03:02;7.40;;;2.20;;
1320;SDS011;653;51.480;11.992;2023-03-26T14:05:34;5.90;;;1.63;;
1320;SDS011;653;51.480;11.992;2023-03-26T14:08:05;3.87;;;1.60;;
1320;SDS011;653;51.480;11.992;2023-03-26T14:10:52;3.87;;;1.70;;
1320;SDS011;653;51.480;11.992;2023-03-26T14:13:32;3.87;;;1.40;;
1320;SDS011;653;51.480;11.992;2023-03-26T14:16:10;4.20;;;1.87;;
1320;SDS011;653;51.480;11.992;2023-03-26T14:18:51;2.57;;;1.43;;
1320;SDS011;653;51.480;11.992;2023-03-26T14:55:24;5.80;;;2.23;;
1320;SDS011;653;51.480;11.992;2023-03-26T15:06:46;6.30;;;2.00;;
1320;SDS011;653;51.480;11.992;2023-03-26T15:31:18;3.13;;;1.57;;
1320;SDS011;653;51.480;11.992;2023-03-26T15:39:51;5.07;;;2.00;;
1320;SDS011;653;51.480;11.992;2023-03-26T15:42:42;5.20;;;2.13;;
1320;SDS011;653;51.480;11.992;2023-03-26T15:54:07;6.60;;;2.20;;
1320;SDS011;653;51.480;11.992;2023-03-26T16:02:13;3.43;;;1.93;;
1320;SDS011;653;51.480;11.992;2023-03-26T16:10:54;2.90;;;1.70;;
1320;SDS011;653;51.480;11.992;2023-03-26T16:22:05;7.80;;;2.10;;
1320;SDS011;653;51.480;11.992;2023-03-26T16:24:34;4.47;;;1.73;;
1320;SDS011;653;51.480;11.992;2023-03-26T16:27:02;4.33;;;1.80;;
1320;SDS011;653;51.480;11.992;2023-03-26T16:30:01;4.77;;;1.87;;
1320;SDS011;653;51.480;11.992;2023-03-26T16:33:31;4.83;;;1.80;;
1320;SDS011;653;51.480;11.992;2023-03-26T16:41:31;3.43;;;2.30;;
1320;SDS011;653;51.480;11.992;2023-03-26T16:46:36;4.00;;;2.13;;
1320;SDS011;653;51.480;11.992;2023-03-26T16:52:06;2.73;;;1.63;;
1320;SDS011;653;51.480;11.992;2023-03-26T16:58:03;4.53;;;2.40;;
1320;SDS011;653;51.480;11.992;2023-03-26T17:12:28;4.67;;;2.83;;
1320;SDS011;653;51.480;11.992;2023-03-26T17:21:19;6.93;;;2.40;;
1320;SDS011;653;51.480;11.992;2023-03-26T17:33:28;5.30;;;2.53;;
1320;SDS011;653;51.480;11.992;2023-03-26T17:42:33;8.53;;;3.63;;
1320;SDS011;653;51.480;11.992;2023-03-26T17:50:44;6.47;;;5.53;;
1320;SDS011;653;51.480;11.992;2023-03-26T17:53:27;6.80;;;3.80;;
1320;SDS011;653;51.480;11.992;2023-03-26T17:56:04;4.70;;;4.27;;
1320;SDS011;653;51.480;11.992;2023-03-26T17:58:41;12.67;;;10.60;;
1320;SDS011;653;51.480;11.992;2023-03-26T18:01:35;7.20;;;4.70;;
1320;SDS011;653;51.480;11.992;2023-03-26T18:04:05;7.63;;;4.13;;
1320;SDS011;653;51.480;11.992;2023-03-26T18:19:19;3.83;;;2.80;;
1320;SDS011;653;51.480;11.992;2023-03-26T18:21:33;5.70;;;3.63;;
1320;SDS011;653;51.480;11.992;2023-03-26T18:24:28;4.37;;;2.47;;
1320;SDS011;653;51.480;11.992;2023-03-26T18:27:06;5.80;;;2.57;;
1320;SDS011;653;51.480;11.992;2023-03-26T18:29:36;4.10;;;1.83;;
1320;SDS011;653;51.480;11.992;2023-03-26T18:34:45;2.80;;;2.30;;
1320;SDS011;653;51.480;11.992;2023-03-26T18:42:54;6.27;;;3.63;;
1320;SDS011;653;51.480;11.992;2023-03-26T18:45:34;10.03;;;6.13;;
1320;SDS011;653;51.480;11.992;2023-03-26T18:48:24;6.63;;;4.27;;
1320;SDS011;653;51.480;11.992;2023-03-26T18:50:59;6.33;;;4.00;;
1320;SDS011;653;51.480;11.992;2023-03-26T18:53:39;7.00;;;3.53;;
1320;SDS011;653;51.480;11.992;2023-03-26T18:59:18;7.23;;;3.10;;
1320;SDS011;653;51.480;11.992;2023-03-26T19:01:45;3.97;;;2.90;;
1320;SDS011;653;51.480;11.992;2023-03-26T19:04:12;3.77;;;2.83;;
1320;SDS011;653;51.480;11.992;2023-03-26T19:06:39;6.97;;;2.57;;
1320;SDS011;653;51.480;11.992;2023-03-26T19:09:06;8.33;;;2.27;;
1320;SDS011;653;51.480;11.992;2023-03-26T19:11:39;3.63;;;2.30;;
1320;SDS011;653;51.480;11.992;2023-03-26T19:14:15;3.10;;;2.23;;
1320;SDS011;653;51.480;11.992;2023-03-26T19:17:00;3.73;;;2.17;;
1320;SDS011;653;51.480;11.992;2023-03-26T19:19:30;4.37;;;2.50;;
1320;SDS011;653;51.480;11.992;2023-03-26T19:21:58;5.60;;;3.30;;
1320;SDS011;653;51.480;11.992;2023-03-26T19:24:25;4.23;;;3.10;;
1320;SDS011;653;51.480;11.992;2023-03-26T19:26:51;5.33;;;3.10;;
1320;SDS011;653;51.480;11.992;2023-03-26T19:29:23;5.77;;;3.00;;
1320;SDS011;653;51.480;11.992;2023-03-26T19:31:52;4.50;;;2.73;;
1320;SDS011;653;51.480;11.992;2023-03-26T19:34:38;4.13;;;2.77;;
1320;SDS011;653;51.480;11.992;2023-03-26T19:37:15;5.30;;;3.23;;
1320;SDS011;653;51.480;11.992;2023-03-26T19:39:43;4.93;;;2.83;;
1320;SDS011;653;51.480;11.992;2023-03-26T19:42:26;8.00;;;3.47;;
1320;SDS011;653;51.480;11.992;2023-03-26T19:44:58;6.63;;;3.10;;
1320;SDS011;653;51.480;11.992;2023-03-26T19:47:31;4.00;;;3.40;;
1320;SDS011;653;51.480;11.992;2023-03-26T19:50:23;4.80;;;3.90;;
1320;SDS011;653;51.480;11.992;2023-03-26T19:55:53;6.40;;;4.93;;
1320;SDS011;653;51.480;11.992;2023-03-26T19:58:40;5.80;;;4.40;;
1320;SDS011;653;51.480;11.992;2023-03-26T20:01:13;6.13;;;5.37;;
1320;SDS011;653;51.480;11.992;2023-03-26T20:03:44;7.70;;;5.30;;
1320;SDS011;653;51.480;11.992;2023-03-26T20:06:13;6.67;;;4.83;;
1320;SDS011;653;51.480;11.992;2023-03-26T20:08:45;9.80;;;5.67;;
1320;SDS011;653;51.480;11.992;2023-03-26T20:11:13;7.87;;;5.20;;
1320;SDS011;653;51.480;11.992;2023-03-26T20:13:58;8.03;;;5.70;;
1320;SDS011;653;51.480;11.992;2023-03-26T20:16:32;6.77;;;5.10;;
1320;SDS011;653;51.480;11.992;2023-03-26T20:19:00;9.33;;;6.17;;
1320;SDS011;653;51.480;11.992;2023-03-26T20:21:28;8.63;;;5.37;;
1320;SDS011;653;51.480;11.992;2023-03-26T20:23:57;6.03;;;5.20;;
1320;SDS011;653;51.480;11.992;2023-03-26T20:26:24;10.47;;;6.70;;
1320;SDS011;653;51.480;11.992;2023-03-26T20:28:49;8.73;;;6.47;;
1320;SDS011;653;51.480;11.992;2023-03-26T20:31:20;10.63;;;7.37;;
1320;SDS011;653;51.480;11.992;2023-03-26T20:33:51;10.40;;;6.47;;
1320;SDS011;653;51.480;11.992;2023-03-26T20:36:17;9.50;;;7.70;;
1320;SDS011;653;51.480;11.992;2023-03-26T20:38:49;9.57;;;7.20;;
1320;SDS011;653;51.480;11.992;2023-03-26T20:41:17;9.80;;;7.10;;
1320;SDS011;653;51.480;11.992;2023-03-26T20:43:48;8.57;;;7.03;;
1320;SDS011;653;51.480;11.992;2023-03-26T20:46:15;10.27;;;6.70;;
1320;SDS011;653;51.480;11.992;2023-03-26T20:48:47;10.80;;;6.67;;
1320;SDS011;653;51.480;11.992;2023-03-26T20:51:13;8.30;;;5.90;;
1320;SDS011;653;51.480;11.992;2023-03-26T20:53:41;8.53;;;6.53;;
1320;SDS011;653;51.480;11.992;2023-03-26T20:56:15;8.10;;;5.80;;
1320;SDS011;653;51.480;11.992;2023-03-26T20:58:45;7.50;;;5.10;;
1320;SDS011;653;51.480;11.992;2023-03-26T21:01:13;7.30;;;5.17;;
1320;SDS011;653;51.480;11.992;2023-03-26T21:03:43;11.43;;;5.50;;
1320;SDS011;653;51.480;11.992;2023-03-26T21:06:11;6.60;;;4.40;;
1320;SDS011;653;51.480;11.992;2023-03-26T21:08:39;7.77;;;5.03;;
1320;SDS011;653;51.480;11.992;2023-03-26T21:14:02;8.97;;;5.50;;
1320;SDS011;653;51.480;11.992;2023-03-26T21:16:33;8.10;;;4.20;;
1320;SDS011;653;51.480;11.992;2023-03-26T21:19:03;9.70;;;5.40;;
1320;SDS011;653;51.480;11.992;2023-03-26T21:21:50;10.93;;;3.93;;
1320;SDS011;653;51.480;11.992;2023-03-26T21:24:43;8.33;;;3.67;;
1320;SDS011;653;51.480;11.992;2023-03-26T21:30:13;7.93;;;3.60;;
1320;SDS011;653;51.480;11.992;2023-03-26T21:32:43;6.80;;;4.50;;
1320;SDS011;653;51.480;11.992;2023-03-26T21:35:10;8.80;;;3.67;;
1320;SDS011;653;51.480;11.992;2023-03-26T21:37:41;7.60;;;3.60;;
1320;SDS011;653;51.480;11.992;2023-03-26T21:40:16;8.07;;;3.40;;
1320;SDS011;653;51.480;11.992;2023-03-26T21:42:45;11.70;;;4.47;;
1320;SDS011;653;51.480;11.992;2023-03-26T21:45:15;8.30;;;4.20;;
1320;SDS011;653;51.480;11.992;2023-03-26T21:47:41;9.70;;;4.47;;
1320;SDS011;653;51.480;11.992;2023-03-26T21:50:08;14.37;;;4.90;;
1320;SDS011;653;51.480;11.992;2023-03-26T21:52:38;6.90;;;3.83;;
1320;SDS011;653;51.480;11.992;2023-03-26T21:55:18;12.57;;;3.70;;
1320;SDS011;653;51.480;11.992;2023-03-26T22:04:07;11.43;;;5.03;;
1320;SDS011;653;51.480;11.992;2023-03-26T22:06:41;10.60;;;4.47;;
1320;SDS011;653;51.480;11.992;2023-03-26T22:09:18;3.87;;;3.40;;
1320;SDS011;653;51.480;11.992;2023-03-26T22:11:45;10.63;;;3.80;;
1320;SDS011;653;51.480;11.992;2023-03-26T22:14:12;9.20;;;4.40;;
1320;SDS011;653;51.480;11.992;2023-03-26T22:16:39;10.50;;;4.03;;
1320;SDS011;653;51.480;11.992;2023-03-26T22:19:06;9.27;;;4.07;;
1320;SDS011;653;51.480;11.992;2023-03-26T22:21:34;8.07;;;3.47;;
1320;SDS011;653;51.480;11.992;2023-03-26T22:24:01;13.00;;;3.87;;
1320;SDS011;653;51.480;11.992;2023-03-26T22:26:29;9.37;;;3.67;;
1320;SDS011;653;51.480;11.992;2023-03-26T22:28:56;6.73;;;4.20;;
1320;SDS011;653;51.480;11.992;2023-03-26T22:31:23;8.80;;;3.70;;
1320;SDS011;653;51.480;11.992;2023-03-26T22:33:53;7.63;;;3.70;;
1320;SDS011;653;51.480;11.992;2023-03-26T22:36:19;8.27;;;4.20;;
1320;SDS011;653;51.480;11.992;2023-03-26T22:38:45;7.73;;;3.37;;
1320;SDS011;653;51.480;11.992;2023-03-26T22:41:13;5.90;;;2.90;;
1320;SDS011;653;51.480;11.992;2023-03-26T22:43:39;6.60;;;3.33;;
1320;SDS011;653;51.480;11.992;2023-03-26T22:46:06;5.50;;;3.50;;
1320;SDS011;653;51.480;11.992;2023-03-26T22:48:33;8.90;;;3.67;;
1320;SDS011;653;51.480;11.992;2023-03-26T22:51:01;7.10;;;3.67;;